OIBA  Abumusa Island Airport

Add Bookmark

Iran

Status IATA
Operational AEU
Latitude Longitude
25° 52' 32" N 55° 1' 58" E
25.875700 55.033001
Local (DST + 5) UTC (GMT + 4)
Oct 1, 2014 03:25 Sep 30, 2014 23:55
Sunrise-Sunset Local UTC
Begin Civil Twilight 05:18 01:48
Sunrise 05:41 02:11
Sunset 05:37 14:07
End Civil Twilight 06:00 14:30

Current Weather

METAR Observed MVFR
OIBA 301500Z 26012KT 8000 SKC 33/25 Q1008 Tue, Sep 30, 2014 @ 15:00 UTC
(8 Hours, 55 Minutes ago)
Marginal Visual Flight Rules
Wind Visibility Clouds Conditions
260° at 12 knots (22 kph) 8000 meters
  • Clear skies
  • No significant weather
Temperatures Readings Precipitation
Current Temp 33°C (91°F)
Dewpoint 25°C (77°F)
Heat Index 40°C (104°F)
Humidity 63%
Altimeter 29.76"Hg
Sea Level Pressure 1008mb
Field Elevation 22.97'
None Recorded

Additional weather within a 92.6km radius of OIBA

Map ICAO Location
OIBS 49.4km W (274°)
OIBL 75.7km N (344°)
OMDB 76.9km S (154°)
OMSJ 77.8km S (141°)

24 Hour Weather History

Loading
-

24 Hour Weather Graphs

Loading
-

CheckWX.com is intended as a tool to help pilots better visualize weather data. It is not intended as a substitute for an official weather briefing obtained from a Flight Service Station. CheckWX.com does not meet the FAA requirements for an official pre-flight weather briefing. Therefore, it's important that pilots still call and obtain an official FSS pre-flight weather briefing.